createdAt,value
2023-02-28T00:01:58.658Z,21.79
2023-02-28T00:04:27.421Z,21.71
2023-02-28T00:06:56.383Z,21.85
2023-02-28T00:09:25.288Z,21.79
2023-02-28T00:11:54.944Z,21.87
2023-02-28T00:14:23.676Z,21.92
2023-02-28T00:16:52.857Z,22.00
2023-02-28T00:19:21.683Z,22.20
2023-02-28T00:21:50.616Z,22.39
2023-02-28T00:24:19.590Z,22.49
2023-02-28T00:26:48.626Z,22.54
2023-02-28T00:29:17.386Z,22.46
2023-02-28T00:31:46.594Z,22.44
2023-02-28T00:34:15.402Z,22.29
2023-02-28T00:36:47.326Z,22.20
2023-02-28T00:39:16.589Z,22.31
2023-02-28T00:41:46.137Z,22.06
2023-02-28T00:44:16.163Z,22.01
2023-02-28T00:46:44.932Z,21.92
2023-02-28T00:49:14.019Z,21.80
2023-02-28T00:51:44.667Z,21.49
2023-02-28T00:54:13.604Z,21.53
2023-02-28T00:56:42.479Z,21.53
2023-02-28T00:59:13.093Z,21.54
2023-02-28T01:01:46.403Z,21.50
2023-02-28T01:04:18.214Z,21.58
2023-02-28T01:06:49.825Z,21.42
2023-02-28T01:09:20.086Z,21.30
2023-02-28T01:11:50.110Z,21.17
2023-02-28T01:14:21.605Z,21.05
2023-02-28T01:16:51.846Z,20.82
2023-02-28T01:19:22.476Z,20.64
2023-02-28T01:21:53.282Z,20.65
2023-02-28T01:24:23.446Z,20.53
2023-02-28T01:26:53.569Z,20.59
2023-02-28T01:29:24.511Z,20.43
2023-02-28T01:31:55.884Z,20.34
2023-02-28T01:34:25.595Z,20.28
2023-02-28T01:36:55.214Z,20.20
2023-02-28T01:39:25.364Z,20.21
2023-02-28T01:41:55.609Z,20.16
2023-02-28T01:45:02.682Z,20.46
2023-02-28T01:47:41.956Z,20.27
2023-02-28T01:50:17.641Z,20.21
2023-02-28T01:52:49.664Z,20.06
2023-02-28T01:55:23.014Z,20.05
2023-02-28T01:57:56.815Z,20.12
2023-02-28T02:00:32.096Z,20.07
2023-02-28T02:03:16.936Z,20.11
2023-02-28T02:05:49.655Z,19.91
2023-02-28T02:08:25.506Z,20.07
2023-02-28T02:11:04.664Z,20.13
2023-02-28T02:14:22.513Z,20.17
2023-02-28T02:17:01.399Z,20.19
2023-02-28T02:20:18.900Z,20.14
2023-02-28T02:23:14.616Z,20.14
2023-02-28T02:25:55.675Z,20.07
2023-02-28T02:28:38.464Z,20.05
2023-02-28T02:31:29.633Z,20.28
2023-02-28T02:34:17.988Z,20.41
2023-02-28T02:37:11.402Z,20.27
2023-02-28T02:39:56.817Z,20.40
2023-02-28T02:42:47.285Z,20.34
2023-02-28T02:45:27.805Z,20.12
2023-02-28T02:48:02.421Z,20.20
2023-02-28T02:50:39.619Z,20.36
2023-02-28T02:53:11.812Z,20.26
2023-02-28T02:55:46.390Z,20.47
2023-02-28T02:58:24.854Z,20.51
2023-02-28T03:01:00.820Z,20.81
2023-02-28T03:03:32.301Z,20.88
2023-02-28T03:06:03.811Z,20.65
2023-02-28T03:08:39.115Z,21.04
2023-02-28T03:11:16.061Z,20.98
2023-02-28T03:14:02.171Z,21.24
2023-02-28T03:16:59.071Z,21.28
2023-02-28T03:19:44.301Z,21.32
2023-02-28T03:22:38.768Z,21.37
2023-02-28T03:25:40.449Z,21.39
2023-02-28T03:28:41.714Z,21.49
2023-02-28T03:31:48.525Z,21.55
2023-02-28T03:34:41.391Z,21.66
2023-02-28T03:37:18.005Z,21.69
2023-02-28T03:39:54.425Z,21.73
2023-02-28T03:42:28.591Z,21.87
2023-02-28T03:45:05.170Z,21.97
2023-02-28T03:47:48.142Z,21.96
2023-02-28T03:50:37.730Z,22.14
2023-02-28T03:53:16.698Z,22.26
2023-02-28T03:55:54.909Z,22.29
2023-02-28T03:58:44.903Z,22.40
2023-02-28T04:01:26.651Z,22.27
2023-02-28T04:03:56.702Z,22.27
2023-02-28T04:06:27.149Z,22.25
2023-02-28T04:08:56.982Z,22.34
2023-02-28T04:11:37.414Z,22.50
2023-02-28T04:14:08.449Z,22.30
2023-02-28T04:16:41.944Z,22.31
2023-02-28T04:19:14.658Z,22.55
2023-02-28T04:21:55.676Z,22.61
2023-02-28T04:24:30.330Z,22.61
2023-02-28T04:27:00.879Z,22.86
2023-02-28T04:29:33.743Z,22.89
2023-02-28T04:32:04.736Z,22.54
2023-02-28T04:34:34.859Z,22.55
2023-02-28T04:37:13.986Z,22.72
2023-02-28T04:39:44.136Z,22.71
2023-02-28T04:42:14.516Z,22.78
2023-02-28T04:44:43.764Z,22.71
2023-02-28T04:47:12.482Z,22.82
2023-02-28T04:49:43.317Z,23.06
2023-02-28T04:52:12.560Z,22.98
2023-02-28T04:54:41.761Z,23.11
2023-02-28T04:57:10.747Z,23.21
2023-02-28T04:59:39.593Z,23.09
2023-02-28T05:02:08.792Z,23.44
2023-02-28T05:04:38.169Z,23.26
2023-02-28T05:07:07.220Z,23.37
2023-02-28T05:09:36.586Z,23.56
2023-02-28T05:12:05.602Z,23.62
2023-02-28T05:14:34.579Z,23.82
2023-02-28T05:17:03.489Z,23.81
2023-02-28T05:19:32.344Z,23.82
2023-02-28T05:22:01.526Z,23.94
2023-02-28T05:24:30.473Z,24.07
2023-02-28T05:26:59.958Z,24.03
2023-02-28T05:29:28.655Z,24.30
2023-02-28T05:31:57.683Z,24.47
2023-02-28T05:34:26.564Z,24.61
2023-02-28T05:36:55.554Z,24.67
2023-02-28T05:39:24.547Z,24.46
2023-02-28T05:41:53.552Z,24.60
2023-02-28T05:44:22.384Z,24.68
2023-02-28T05:46:51.345Z,24.82
2023-02-28T05:49:20.350Z,24.73
2023-02-28T05:51:49.351Z,24.73
2023-02-28T05:54:18.381Z,24.64
2023-02-28T05:56:47.773Z,24.73
2023-02-28T05:59:16.550Z,24.89
2023-02-28T06:01:50.124Z,25.09
2023-02-28T06:04:31.455Z,25.03
2023-02-28T06:07:01.265Z,24.91
2023-02-28T06:09:30.372Z,25.12
2023-02-28T06:12:05.639Z,25.19
2023-02-28T06:14:36.133Z,25.21
2023-02-28T06:17:06.154Z,25.26
2023-02-28T06:19:35.659Z,25.24
2023-02-28T06:22:04.456Z,25.22
2023-02-28T06:24:33.595Z,25.26
2023-02-28T06:27:09.967Z,25.27
2023-02-28T06:29:41.806Z,25.20
2023-02-28T06:32:11.367Z,25.19
2023-02-28T06:34:40.254Z,25.18
2023-02-28T06:37:09.319Z,25.14
2023-02-28T06:39:38.353Z,25.07
2023-02-28T06:42:07.575Z,24.92
2023-02-28T06:44:39.874Z,25.12
2023-02-28T06:47:09.041Z,25.34
2023-02-28T06:49:38.756Z,25.01
2023-02-28T06:52:08.089Z,24.82
2023-02-28T06:54:38.472Z,24.78
2023-02-28T06:57:07.546Z,24.70
2023-02-28T06:59:37.220Z,24.73
2023-02-28T07:02:08.393Z,24.78
2023-02-28T07:04:37.433Z,24.83
2023-02-28T07:07:06.230Z,24.85
2023-02-28T07:09:35.269Z,25.01
2023-02-28T07:12:04.300Z,24.97
2023-02-28T07:14:33.257Z,24.78
2023-02-28T07:17:02.063Z,24.67
2023-02-28T07:19:32.357Z,24.76
2023-02-28T07:22:01.628Z,24.80
2023-02-28T07:24:31.294Z,24.84
2023-02-28T07:27:01.315Z,24.76
2023-02-28T07:29:30.183Z,24.70
2023-02-28T07:32:00.204Z,24.73
2023-02-28T07:34:29.781Z,24.74
2023-02-28T07:36:59.001Z,24.73
2023-02-28T07:39:27.747Z,24.75
2023-02-28T07:41:56.784Z,24.82
2023-02-28T07:44:28.983Z,24.84
2023-02-28T07:46:58.252Z,24.91
2023-02-28T07:49:27.110Z,24.77
2023-02-28T07:51:56.310Z,24.77
2023-02-28T07:54:25.253Z,24.72
2023-02-28T07:56:54.303Z,24.76
2023-02-28T07:59:23.127Z,24.74
2023-02-28T08:01:52.814Z,24.71
2023-02-28T08:04:21.823Z,24.62
2023-02-28T08:06:53.945Z,24.75
2023-02-28T08:09:23.099Z,24.60
2023-02-28T08:11:51.910Z,24.69
2023-02-28T08:14:20.932Z,24.54
2023-02-28T08:16:49.803Z,24.51
2023-02-28T08:19:19.669Z,24.80
2023-02-28T08:22:02.514Z,24.73
2023-02-28T08:24:31.644Z,24.72
2023-02-28T08:27:00.479Z,24.78
2023-02-28T08:29:29.673Z,24.98
2023-02-28T08:31:58.975Z,24.83
2023-02-28T08:34:27.964Z,24.83
2023-02-28T08:36:56.875Z,24.85
2023-02-28T08:39:26.034Z,24.96
2023-02-28T08:42:06.745Z,24.97
2023-02-28T08:44:36.747Z,25.06
2023-02-28T08:47:05.880Z,25.12
2023-02-28T08:49:35.080Z,25.29
2023-02-28T08:52:03.920Z,25.53
2023-02-28T08:54:34.043Z,25.15
2023-02-28T08:57:03.379Z,25.37
2023-02-28T08:59:32.736Z,25.47
2023-02-28T09:02:01.834Z,25.48
2023-02-28T09:04:34.053Z,25.41
2023-02-28T09:07:03.236Z,25.41
2023-02-28T09:09:32.076Z,25.24
2023-02-28T09:12:01.454Z,25.43
2023-02-28T09:14:30.546Z,25.52
2023-02-28T09:17:00.306Z,25.43
2023-02-28T09:19:29.363Z,25.36
2023-02-28T09:21:58.387Z,25.47
2023-02-28T09:24:27.188Z,25.41
2023-02-28T09:27:04.511Z,25.35
2023-02-28T09:29:35.918Z,25.36
2023-02-28T09:32:07.784Z,25.25
2023-02-28T09:34:38.797Z,25.02
2023-02-28T09:37:10.375Z,25.01
2023-02-28T09:39:39.546Z,25.25
2023-02-28T09:42:16.451Z,25.26
2023-02-28T09:44:49.440Z,25.43
2023-02-28T09:47:43.153Z,25.52
2023-02-28T09:50:40.036Z,25.43
2023-02-28T09:53:36.715Z,25.56
2023-02-28T09:56:11.399Z,25.55
2023-02-28T09:58:50.743Z,25.58
2023-02-28T10:01:47.877Z,25.48
2023-02-28T10:04:40.996Z,25.52
2023-02-28T10:07:56.895Z,25.57
2023-02-28T10:10:32.269Z,25.70
2023-02-28T10:13:07.779Z,25.55
2023-02-28T10:15:39.135Z,25.21
2023-02-28T10:18:17.042Z,25.24
2023-02-28T10:20:47.456Z,25.24
2023-02-28T10:23:36.864Z,25.27
2023-02-28T10:26:25.986Z,25.18
2023-02-28T10:28:55.804Z,25.17
2023-02-28T10:31:26.304Z,25.03
2023-02-28T10:33:55.754Z,25.21
2023-02-28T10:36:24.863Z,25.18
2023-02-28T10:38:56.782Z,25.00
2023-02-28T10:41:36.552Z,25.28
2023-02-28T10:44:31.539Z,25.28
2023-02-28T10:47:02.095Z,25.18
2023-02-28T10:49:31.732Z,25.23
2023-02-28T10:52:02.845Z,25.20
2023-02-28T10:54:39.665Z,25.26
2023-02-28T10:57:22.540Z,25.25
2023-02-28T11:00:07.656Z,25.16
2023-02-28T11:02:39.585Z,25.08
2023-02-28T11:05:32.119Z,25.26
2023-02-28T11:08:21.466Z,25.38
2023-02-28T11:10:58.001Z,25.22
2023-02-28T11:13:41.849Z,25.32
2023-02-28T11:16:14.552Z,25.26
2023-02-28T11:18:47.105Z,25.32
2023-02-28T11:21:27.289Z,25.24
2023-02-28T11:24:07.474Z,25.07
2023-02-28T11:26:46.366Z,25.13
2023-02-28T11:29:22.962Z,24.96
2023-02-28T11:32:18.226Z,25.02
2023-02-28T11:34:49.376Z,24.80
2023-02-28T11:37:21.714Z,24.91
2023-02-28T11:39:50.857Z,24.88
2023-02-28T11:42:39.392Z,24.89
2023-02-28T11:45:19.939Z,24.93
2023-02-28T11:48:04.676Z,24.58
2023-02-28T11:51:06.139Z,24.84
2023-02-28T11:53:46.811Z,24.63
2023-02-28T11:56:29.019Z,24.50
2023-02-28T11:59:39.304Z,24.68
2023-02-28T12:02:30.279Z,24.63
2023-02-28T12:05:33.045Z,24.56
2023-02-28T12:08:15.096Z,24.33
2023-02-28T12:11:28.913Z,24.43
2023-02-28T12:14:11.945Z,24.43
2023-02-28T12:17:06.564Z,24.37
2023-02-28T12:19:45.651Z,24.11
2023-02-28T12:22:28.252Z,24.24
2023-02-28T12:25:09.269Z,24.23
2023-02-28T12:27:44.895Z,24.16
2023-02-28T12:30:43.600Z,24.22
2023-02-28T12:33:16.903Z,24.11
2023-02-28T12:35:53.262Z,24.09
2023-02-28T12:38:26.815Z,23.99
2023-02-28T12:41:03.656Z,23.92
2023-02-28T12:43:40.634Z,23.95
2023-02-28T12:46:27.870Z,23.87
2023-02-28T12:49:01.197Z,23.80
2023-02-28T12:51:31.794Z,23.64
2023-02-28T12:54:28.753Z,23.64
2023-02-28T12:57:20.704Z,23.63
2023-02-28T13:00:00.525Z,23.54
2023-02-28T13:03:01.979Z,23.45
2023-02-28T13:06:06.804Z,23.33
2023-02-28T13:08:50.686Z,23.27
2023-02-28T13:11:44.712Z,23.29
2023-02-28T13:14:37.803Z,23.11
2023-02-28T13:17:14.605Z,23.14
2023-02-28T13:19:43.816Z,23.01
2023-02-28T13:22:42.098Z,23.17
2023-02-28T13:25:44.302Z,23.16
2023-02-28T13:28:16.406Z,22.99
2023-02-28T13:30:57.513Z,23.13
2023-02-28T13:33:59.901Z,23.13
2023-02-28T13:36:32.109Z,22.90
2023-02-28T13:39:04.008Z,22.96
2023-02-28T13:41:36.314Z,22.99
2023-02-28T13:44:20.208Z,23.18
2023-02-28T13:46:52.778Z,23.16
2023-02-28T13:49:27.405Z,23.13
2023-02-28T13:52:05.104Z,23.23
2023-02-28T13:55:04.691Z,23.31
2023-02-28T13:58:03.890Z,23.31
2023-02-28T14:01:18.997Z,23.23
2023-02-28T14:03:59.972Z,23.21
2023-02-28T14:06:39.206Z,23.18
2023-02-28T14:09:19.893Z,23.12
2023-02-28T14:11:49.247Z,23.18
2023-02-28T14:14:39.506Z,23.27
2023-02-28T14:17:16.188Z,23.19
2023-02-28T14:19:51.597Z,23.19
2023-02-28T14:22:39.109Z,23.25
2023-02-28T14:25:46.155Z,23.22
2023-02-28T14:28:21.548Z,23.12
2023-02-28T14:30:51.944Z,22.94
2023-02-28T14:33:37.322Z,23.14
2023-02-28T14:36:18.539Z,22.80
2023-02-28T14:39:08.861Z,23.08
2023-02-28T14:41:41.486Z,22.92
2023-02-28T14:44:16.340Z,22.90
2023-02-28T14:46:47.513Z,22.82
2023-02-28T14:49:27.998Z,22.79
2023-02-28T14:52:22.891Z,22.88
2023-02-28T14:55:00.718Z,22.82
2023-02-28T14:57:35.869Z,22.83
2023-02-28T15:00:24.992Z,22.92
2023-02-28T15:02:55.186Z,22.64
2023-02-28T15:05:35.760Z,22.72
2023-02-28T15:08:07.731Z,22.39
2023-02-28T15:10:37.169Z,22.62
2023-02-28T15:13:14.466Z,22.80
2023-02-28T15:16:03.332Z,22.73
2023-02-28T15:18:59.245Z,22.75
2023-02-28T15:21:40.736Z,22.77
2023-02-28T15:24:18.369Z,22.60
2023-02-28T15:26:53.150Z,22.43
2023-02-28T15:29:26.000Z,22.44
2023-02-28T15:32:03.341Z,22.43
2023-02-28T15:34:44.300Z,22.65
2023-02-28T15:37:39.545Z,22.70
2023-02-28T15:40:39.006Z,22.75
2023-02-28T15:43:41.949Z,22.63
2023-02-28T15:46:14.322Z,22.47
2023-02-28T15:48:53.386Z,22.50
2023-02-28T15:51:32.066Z,22.46
2023-02-28T15:54:17.306Z,22.46
2023-02-28T15:56:49.614Z,22.34
2023-02-28T15:59:28.654Z,22.34
2023-02-28T16:02:12.604Z,22.36
2023-02-28T16:05:08.885Z,22.35
2023-02-28T16:07:45.771Z,22.32
2023-02-28T16:10:18.454Z,22.19
2023-02-28T16:12:47.731Z,22.13
2023-02-28T16:15:31.112Z,22.29
2023-02-28T16:18:00.506Z,22.10
2023-02-28T16:20:32.756Z,22.19
2023-02-28T16:23:04.795Z,22.45
2023-02-28T16:25:46.146Z,22.32
2023-02-28T16:28:33.208Z,22.23
2023-02-28T16:31:07.234Z,21.95
2023-02-28T16:33:36.632Z,21.95
2023-02-28T16:36:05.904Z,21.91
2023-02-28T16:38:36.015Z,21.95
2023-02-28T16:41:05.058Z,21.97
2023-02-28T16:43:34.246Z,22.13
2023-02-28T16:46:05.596Z,22.09
2023-02-28T16:48:34.651Z,22.21
2023-02-28T16:51:06.236Z,22.20
2023-02-28T16:53:35.316Z,22.23
2023-02-28T16:56:04.220Z,22.22
2023-02-28T16:58:33.330Z,22.13
2023-02-28T17:01:02.271Z,22.22
2023-02-28T17:03:33.541Z,22.27
2023-02-28T17:06:03.526Z,22.18
2023-02-28T17:08:33.997Z,22.17
2023-02-28T17:11:04.603Z,22.03
2023-02-28T17:13:36.358Z,22.04
2023-02-28T17:16:05.808Z,22.13
2023-02-28T17:18:36.554Z,21.84
2023-02-28T17:21:05.820Z,21.53
2023-02-28T17:23:34.608Z,21.67
2023-02-28T17:26:03.520Z,21.60
2023-02-28T17:28:32.328Z,21.69
2023-02-28T17:31:01.546Z,21.61
2023-02-28T17:33:30.488Z,21.63
2023-02-28T17:35:59.786Z,21.54
2023-02-28T17:38:28.644Z,21.65
2023-02-28T17:40:59.242Z,21.77
2023-02-28T17:43:29.297Z,21.78
2023-02-28T17:45:58.494Z,21.80
2023-02-28T17:48:27.973Z,21.39
2023-02-28T17:50:56.846Z,21.52
2023-02-28T17:53:26.053Z,21.57
2023-02-28T17:55:54.863Z,21.15
2023-02-28T17:58:23.788Z,21.13
2023-02-28T18:00:55.748Z,21.07
2023-02-28T18:03:26.201Z,21.11
2023-02-28T18:05:55.957Z,21.16
2023-02-28T18:08:26.175Z,21.36
2023-02-28T18:10:55.202Z,20.99
2023-02-28T18:13:23.932Z,20.91
2023-02-28T18:15:53.327Z,20.93
2023-02-28T18:18:22.331Z,20.75
2023-02-28T18:20:51.816Z,20.62
2023-02-28T18:23:22.418Z,20.58
2023-02-28T18:25:51.480Z,20.47
2023-02-28T18:28:20.194Z,20.37
2023-02-28T18:30:49.100Z,20.05
2023-02-28T18:33:18.216Z,20.15
2023-02-28T18:35:47.183Z,20.11
2023-02-28T18:38:22.023Z,20.25
2023-02-28T18:41:02.955Z,20.21
2023-02-28T18:43:33.844Z,19.86
2023-02-28T18:46:08.020Z,19.75
2023-02-28T18:48:37.925Z,19.67
2023-02-28T18:51:13.769Z,20.03
2023-02-28T18:53:44.389Z,19.59
2023-02-28T18:56:16.393Z,19.82
2023-02-28T18:58:46.003Z,19.54
2023-02-28T19:01:27.869Z,19.59
2023-02-28T19:03:57.701Z,19.76
2023-02-28T19:06:26.458Z,19.68
2023-02-28T19:08:56.906Z,19.74
2023-02-28T19:11:27.233Z,19.83
2023-02-28T19:13:57.202Z,19.88
2023-02-28T19:16:28.777Z,19.95
2023-02-28T19:18:58.595Z,19.86
2023-02-28T19:21:27.998Z,19.85
2023-02-28T19:23:56.955Z,19.82
2023-02-28T19:26:28.085Z,19.83
2023-02-28T19:28:57.459Z,19.74
2023-02-28T19:31:46.963Z,19.89
2023-02-28T19:34:16.160Z,19.75
2023-02-28T19:36:44.915Z,19.89
2023-02-28T19:39:13.820Z,19.66
2023-02-28T19:41:42.630Z,19.65
2023-02-28T19:44:11.712Z,19.86
2023-02-28T19:46:40.786Z,19.78
2023-02-28T19:49:10.538Z,19.97
2023-02-28T19:51:39.752Z,19.59
2023-02-28T19:54:08.683Z,19.61
2023-02-28T19:56:37.655Z,19.80
2023-02-28T19:59:13.038Z,19.69
2023-02-28T20:01:50.841Z,19.68
2023-02-28T20:04:19.504Z,19.79
2023-02-28T20:06:48.517Z,19.74
2023-02-28T20:09:17.691Z,19.63
2023-02-28T20:11:47.854Z,19.86
2023-02-28T20:14:18.708Z,19.80
2023-02-28T20:16:48.106Z,19.88
2023-02-28T20:19:16.842Z,19.60
2023-02-28T20:21:46.387Z,19.74
2023-02-28T20:24:15.131Z,19.80
2023-02-28T20:26:44.199Z,19.91
2023-02-28T20:29:12.978Z,19.89
2023-02-28T20:31:42.089Z,19.93
2023-02-28T20:34:10.893Z,19.84
2023-02-28T20:36:40.035Z,19.97
2023-02-28T20:39:08.934Z,19.96
2023-02-28T20:41:38.002Z,19.87
2023-02-28T20:44:07.497Z,20.01
2023-02-28T20:46:36.636Z,20.09
2023-02-28T20:49:05.573Z,20.10
2023-02-28T20:51:34.850Z,20.04
2023-02-28T20:54:05.414Z,20.11
2023-02-28T20:56:35.196Z,20.30
2023-02-28T20:59:04.409Z,20.24
2023-02-28T21:01:33.434Z,20.32
2023-02-28T21:04:07.175Z,20.19
2023-02-28T21:06:41.170Z,20.23
2023-02-28T21:09:11.583Z,20.13
2023-02-28T21:11:41.058Z,20.25
2023-02-28T21:14:14.793Z,20.44
2023-02-28T21:16:45.338Z,20.17
2023-02-28T21:19:14.498Z,20.24
2023-02-28T21:21:45.379Z,20.15
2023-02-28T21:24:17.317Z,20.35
2023-02-28T21:26:47.993Z,20.42
2023-02-28T21:29:17.343Z,20.31
2023-02-28T21:31:46.203Z,20.36
2023-02-28T21:34:15.259Z,20.26
2023-02-28T21:36:48.574Z,20.31
2023-02-28T21:39:20.767Z,20.35
2023-02-28T21:41:49.873Z,20.29
2023-02-28T21:44:23.522Z,20.24
2023-02-28T21:46:57.633Z,20.29
2023-02-28T21:49:26.706Z,20.11
2023-02-28T21:51:55.430Z,20.20
2023-02-28T21:54:24.643Z,20.23
2023-02-28T21:56:53.544Z,20.29
2023-02-28T21:59:22.754Z,20.24
2023-02-28T22:01:52.595Z,20.32
2023-02-28T22:04:24.572Z,20.21
2023-02-28T22:06:58.171Z,20.26
2023-02-28T22:09:27.453Z,20.05
2023-02-28T22:11:57.136Z,20.06
2023-02-28T22:14:26.281Z,20.02
2023-02-28T22:16:57.645Z,20.03
2023-02-28T22:19:28.425Z,19.93
2023-02-28T22:21:58.331Z,19.92
2023-02-28T22:24:27.138Z,19.96
2023-02-28T22:26:56.288Z,19.94
2023-02-28T22:29:25.286Z,19.58
2023-02-28T22:31:54.276Z,19.43
2023-02-28T22:34:22.910Z,19.54
2023-02-28T22:36:51.733Z,19.59
2023-02-28T22:39:20.291Z,19.71
2023-02-28T22:41:49.145Z,19.72
2023-02-28T22:44:17.740Z,19.60
2023-02-28T22:46:46.676Z,19.36
2023-02-28T22:49:15.329Z,19.55
2023-02-28T22:51:44.296Z,19.63
2023-02-28T22:54:12.990Z,19.65
2023-02-28T22:56:41.959Z,19.38
2023-02-28T22:59:15.471Z,19.28
2023-02-28T23:01:45.528Z,19.40
2023-02-28T23:04:14.254Z,19.31
2023-02-28T23:06:45.249Z,19.23
2023-02-28T23:09:19.505Z,19.41
2023-02-28T23:11:50.849Z,19.42
2023-02-28T23:14:21.266Z,19.30
2023-02-28T23:16:57.251Z,19.48
2023-02-28T23:19:30.403Z,19.69
2023-02-28T23:22:01.093Z,19.63
2023-02-28T23:24:33.030Z,19.81
2023-02-28T23:27:05.761Z,19.87
2023-02-28T23:29:36.130Z,19.77
2023-02-28T23:32:05.225Z,19.75
2023-02-28T23:34:34.218Z,19.75
2023-02-28T23:37:03.594Z,19.76
2023-02-28T23:39:32.972Z,19.79
2023-02-28T23:42:02.684Z,19.72
2023-02-28T23:44:31.653Z,19.82
2023-02-28T23:47:00.533Z,19.80
2023-02-28T23:49:29.150Z,19.80
2023-02-28T23:51:58.502Z,19.66
2023-02-28T23:54:27.104Z,19.57
2023-02-28T23:56:55.902Z,19.60
2023-02-28T23:59:24.469Z,19.66
